createdAt,value
2023-07-19T00:01:06.562Z,101335.09
2023-07-19T00:03:33.859Z,101336.00
2023-07-19T00:06:02.510Z,101323.56
2023-07-19T00:08:29.577Z,101334.22
2023-07-19T00:10:56.518Z,101322.66
2023-07-19T00:13:24.764Z,101320.00
2023-07-19T00:15:51.851Z,101324.41
2023-07-19T00:18:18.790Z,101333.19
2023-07-19T00:20:45.868Z,101337.59
2023-07-19T00:23:13.108Z,101326.13
2023-07-19T00:25:40.204Z,101313.66
2023-07-19T00:28:07.100Z,101307.44
2023-07-19T00:30:34.345Z,101308.34
2023-07-19T00:33:01.348Z,101317.25
2023-07-19T00:35:28.372Z,101311.91
2023-07-19T00:37:55.357Z,101300.41
2023-07-19T00:40:22.438Z,101308.38
2023-07-19T00:42:49.410Z,101319.97
2023-07-19T00:45:16.454Z,101312.09
2023-07-19T00:47:43.543Z,101313.03
2023-07-19T00:50:11.123Z,101305.91
2023-07-19T00:52:38.973Z,101313.84
2023-07-19T00:55:07.416Z,101312.88
2023-07-19T00:57:35.416Z,101304.91
2023-07-19T01:00:02.698Z,101300.50
2023-07-19T01:02:30.722Z,101296.06
2023-07-19T01:04:58.303Z,101297.84
2023-07-19T01:07:25.747Z,101302.25
2023-07-19T01:09:52.728Z,101299.53
2023-07-19T01:12:20.627Z,101297.81
2023-07-19T01:14:47.622Z,101303.09
2023-07-19T01:17:14.594Z,101292.47
2023-07-19T01:19:41.823Z,101297.84
2023-07-19T01:22:08.938Z,101285.44
2023-07-19T01:24:36.016Z,101280.13
2023-07-19T01:27:20.787Z,101295.22
2023-07-19T01:29:49.735Z,101296.09
2023-07-19T01:32:16.737Z,101294.31
2023-07-19T01:34:43.783Z,101296.13
2023-07-19T01:37:10.776Z,101290.78
2023-07-19T01:39:37.787Z,101282.78
2023-07-19T01:42:04.845Z,101297.84
2023-07-19T01:44:31.798Z,101305.84
2023-07-19T01:46:58.698Z,101296.03
2023-07-19T01:49:25.733Z,101297.78
2023-07-19T01:51:52.637Z,101297.78
2023-07-19T01:54:19.547Z,101298.72
2023-07-19T01:56:46.461Z,101291.63
2023-07-19T01:59:13.375Z,101294.25
2023-07-19T02:01:40.985Z,101284.50
2023-07-19T02:04:07.991Z,101291.59
2023-07-19T02:06:35.115Z,101287.19
2023-07-19T02:09:02.147Z,101283.69
2023-07-19T02:11:29.206Z,101290.78
2023-07-19T02:13:56.175Z,101283.63
2023-07-19T02:16:23.173Z,101287.19
2023-07-19T02:18:50.226Z,101288.03
2023-07-19T02:21:17.239Z,101280.94
2023-07-19T02:23:44.962Z,101283.59
2023-07-19T02:26:11.921Z,101278.31
2023-07-19T02:28:39.355Z,101279.22
2023-07-19T02:31:06.372Z,101288.06
2023-07-19T02:33:33.354Z,101285.44
2023-07-19T02:36:00.351Z,101292.53
2023-07-19T02:38:27.481Z,101285.44
2023-07-19T02:41:02.313Z,101291.69
2023-07-19T02:43:29.920Z,101296.09
2023-07-19T02:45:57.431Z,101295.22
2023-07-19T02:48:24.407Z,101284.59
2023-07-19T02:50:51.490Z,101290.81
2023-07-19T02:53:18.599Z,101285.47
2023-07-19T02:55:48.529Z,101274.84
2023-07-19T02:58:16.042Z,101282.81
2023-07-19T03:00:44.690Z,101290.81
2023-07-19T03:03:13.564Z,101281.94
2023-07-19T03:05:46.130Z,101283.69
2023-07-19T03:08:13.724Z,101279.25
2023-07-19T03:10:41.198Z,101287.25
2023-07-19T03:13:08.710Z,101282.81
2023-07-19T03:15:36.205Z,101288.13
2023-07-19T03:18:04.735Z,101281.06
2023-07-19T03:20:32.403Z,101283.69
2023-07-19T03:23:01.825Z,101286.38
2023-07-19T03:25:30.359Z,101289.94
2023-07-19T03:27:58.024Z,101289.06
2023-07-19T03:30:25.395Z,101284.59
2023-07-19T03:32:53.275Z,101285.50
2023-07-19T03:35:21.949Z,101286.41
2023-07-19T03:37:49.479Z,101290.91
2023-07-19T03:40:16.760Z,101292.66
2023-07-19T03:42:43.852Z,101294.44
2023-07-19T03:45:11.431Z,101291.78
2023-07-19T03:47:38.522Z,101283.75
2023-07-19T03:50:06.455Z,101288.19
2023-07-19T03:52:33.571Z,101290.88
2023-07-19T03:55:00.590Z,101297.97
2023-07-19T03:57:27.628Z,101287.38
2023-07-19T03:59:55.319Z,101288.22
2023-07-19T04:02:23.453Z,101294.44
2023-07-19T04:04:50.918Z,101295.31
2023-07-19T04:07:18.100Z,101291.78
2023-07-19T04:09:45.480Z,101290.91
2023-07-19T04:12:12.550Z,101289.13
2023-07-19T04:14:40.025Z,101276.78
2023-07-19T04:17:07.259Z,101281.19
2023-07-19T04:19:34.326Z,101281.19
2023-07-19T04:22:01.398Z,101285.63
2023-07-19T04:24:28.634Z,101288.28
2023-07-19T04:26:55.767Z,101289.19
2023-07-19T04:29:23.174Z,101284.75
2023-07-19T04:31:51.423Z,101283.84
2023-07-19T04:34:18.643Z,101289.16
2023-07-19T04:36:46.341Z,101288.28
2023-07-19T04:39:13.399Z,101298.94
2023-07-19T04:41:40.649Z,101306.94
2023-07-19T04:44:07.625Z,101308.69
2023-07-19T04:46:34.706Z,101295.31
2023-07-19T04:49:02.018Z,101304.19
2023-07-19T04:51:29.074Z,101305.94
2023-07-19T04:53:56.486Z,101293.53
2023-07-19T04:56:23.439Z,101304.13
2023-07-19T04:58:50.377Z,101298.78
2023-07-19T05:01:17.426Z,101293.44
2023-07-19T05:03:44.405Z,101298.78
2023-07-19T05:06:11.380Z,101292.53
2023-07-19T05:08:38.725Z,101284.59
2023-07-19T05:11:06.102Z,101293.41
2023-07-19T05:13:33.030Z,101294.28
2023-07-19T05:16:02.203Z,101286.28
2023-07-19T05:18:29.934Z,101289.81
2023-07-19T05:20:56.916Z,101288.03
2023-07-19T05:23:24.978Z,101294.22
2023-07-19T05:25:52.012Z,101290.69
2023-07-19T05:28:21.480Z,101286.19
2023-07-19T05:30:48.494Z,101289.72
2023-07-19T05:33:16.045Z,101289.69
2023-07-19T05:35:43.594Z,101291.47
2023-07-19T05:38:10.586Z,101294.13
2023-07-19T05:40:37.816Z,101288.78
2023-07-19T05:43:04.822Z,101294.03
2023-07-19T05:45:32.551Z,101315.88
2023-07-19T05:48:00.130Z,101306.28
2023-07-19T05:50:28.952Z,101302.53
2023-07-19T05:52:56.016Z,101294.63
2023-07-19T05:55:23.054Z,101302.88
2023-07-19T05:57:49.998Z,101295.31
2023-07-19T06:00:30.117Z,101295.88
2023-07-19T06:02:57.707Z,101297.44
2023-07-19T06:05:26.036Z,101297.13
2023-07-19T06:07:53.714Z,101293.22
2023-07-19T06:10:20.946Z,101286.88
2023-07-19T06:12:48.477Z,101291.97
2023-07-19T06:15:15.849Z,101288.16
2023-07-19T06:17:43.994Z,101288.00
2023-07-19T06:20:11.789Z,101282.53
2023-07-19T06:22:38.973Z,101282.38
2023-07-19T06:25:07.233Z,101293.94
2023-07-19T06:27:34.262Z,101287.66
2023-07-19T06:30:01.250Z,101291.13
2023-07-19T06:32:28.343Z,101284.75
2023-07-19T06:34:55.314Z,101288.19
2023-07-19T06:37:22.298Z,101290.81
2023-07-19T06:39:49.500Z,101292.53
2023-07-19T06:42:16.480Z,101293.38
2023-07-19T06:44:43.498Z,101292.50
2023-07-19T06:47:10.475Z,101290.63
2023-07-19T06:49:38.353Z,101293.25
2023-07-19T06:52:06.074Z,101293.16
2023-07-19T06:54:33.190Z,101295.78
2023-07-19T06:57:00.151Z,101291.34
2023-07-19T06:59:29.464Z,101293.56
2023-07-19T07:01:56.438Z,101298.78
2023-07-19T07:04:23.556Z,101296.75
2023-07-19T07:06:50.655Z,101295.75
2023-07-19T07:09:17.680Z,101297.41
2023-07-19T07:11:44.638Z,101306.50
2023-07-19T07:14:11.869Z,101299.66
2023-07-19T07:16:38.901Z,101298.56
2023-07-19T07:19:06.023Z,101293.84
2023-07-19T07:21:33.127Z,101292.88
2023-07-19T07:24:00.522Z,101300.06
2023-07-19T07:26:27.630Z,101298.34
2023-07-19T07:28:54.550Z,101297.88
2023-07-19T07:31:21.865Z,101296.06
2023-07-19T07:33:49.028Z,101294.16
2023-07-19T07:36:15.979Z,101297.84
2023-07-19T07:38:42.919Z,101293.78
2023-07-19T07:41:12.554Z,101301.38
2023-07-19T07:43:39.732Z,101297.25
2023-07-19T07:46:06.811Z,101294.38
2023-07-19T07:48:33.780Z,101292.34
2023-07-19T07:51:00.865Z,101285.81
2023-07-19T07:53:27.908Z,101291.00
2023-07-19T07:55:55.084Z,101288.22
2023-07-19T07:58:22.542Z,101288.91
2023-07-19T08:00:49.683Z,101289.78
2023-07-19T08:03:16.763Z,101288.88
2023-07-19T08:05:43.940Z,101285.25
2023-07-19T08:08:10.893Z,101285.16
2023-07-19T08:10:41.512Z,101288.59
2023-07-19T08:13:09.991Z,101279.78
2023-07-19T08:15:37.192Z,101277.13
2023-07-19T08:18:04.244Z,101278.91
2023-07-19T08:20:31.619Z,101270.00
2023-07-19T08:23:00.103Z,101268.88
2023-07-19T08:25:28.615Z,101268.69
2023-07-19T08:27:56.078Z,101268.81
2023-07-19T08:30:24.349Z,101269.50
2023-07-19T08:32:51.529Z,101266.03
2023-07-19T08:35:19.312Z,101278.56
2023-07-19T08:37:47.260Z,101268.22
2023-07-19T08:40:16.250Z,101272.91
2023-07-19T08:42:44.492Z,101267.25
2023-07-19T08:45:14.618Z,101274.03
2023-07-19T08:47:42.453Z,101276.13
2023-07-19T08:50:12.332Z,101279.16
2023-07-19T08:52:39.458Z,101275.22
2023-07-19T08:55:07.646Z,101271.50
2023-07-19T08:57:42.977Z,101271.88
2023-07-19T09:00:10.482Z,101270.81
2023-07-19T09:02:37.595Z,101274.56
2023-07-19T09:05:12.268Z,101273.06
2023-07-19T09:07:42.809Z,101273.25
2023-07-19T09:10:11.346Z,101263.84
2023-07-19T09:12:45.045Z,101276.56
2023-07-19T09:15:14.780Z,101280.13
2023-07-19T09:17:48.077Z,101270.88
2023-07-19T09:20:16.612Z,101266.03
2023-07-19T09:22:43.738Z,101277.88
2023-07-19T09:25:12.924Z,101275.69
2023-07-19T09:27:44.254Z,101278.88
2023-07-19T09:30:13.263Z,101270.44
2023-07-19T09:32:41.015Z,101270.97
2023-07-19T09:35:10.002Z,101273.53
2023-07-19T09:37:37.031Z,101277.44
2023-07-19T09:40:06.190Z,101279.34
2023-07-19T09:42:37.325Z,101274.00
2023-07-19T09:45:07.501Z,101280.31
2023-07-19T09:47:36.304Z,101274.00
2023-07-19T09:50:05.343Z,101265.66
2023-07-19T09:52:40.696Z,101270.38
2023-07-19T09:55:08.933Z,101269.72
2023-07-19T09:57:41.271Z,101269.13
2023-07-19T10:00:10.427Z,101277.44
2023-07-19T10:02:37.697Z,101276.88
2023-07-19T10:05:09.685Z,101287.25
2023-07-19T10:07:50.579Z,101286.06
2023-07-19T10:10:21.177Z,101283.69
2023-07-19T10:12:50.084Z,101283.63
2023-07-19T10:15:21.934Z,101272.13
2023-07-19T10:17:52.448Z,101279.53
2023-07-19T10:20:26.658Z,101273.81
2023-07-19T10:23:01.936Z,101269.13
2023-07-19T10:25:37.551Z,101274.63
2023-07-19T10:28:11.575Z,101271.56
2023-07-19T10:31:04.416Z,101272.91
2023-07-19T10:33:37.624Z,101271.13
2023-07-19T10:36:10.955Z,101272.72
2023-07-19T10:38:38.093Z,101265.75
2023-07-19T10:41:10.077Z,101266.97
2023-07-19T10:46:10.032Z,101274.00
2023-07-19T10:48:41.642Z,101262.63
2023-07-19T10:51:09.913Z,101269.81
2023-07-19T10:54:00.810Z,101268.25
2023-07-19T10:56:29.354Z,101264.06
2023-07-19T10:59:01.897Z,101270.19
2023-07-19T11:01:31.317Z,101273.28
2023-07-19T11:04:06.910Z,101265.91
2023-07-19T11:06:37.595Z,101260.56
2023-07-19T11:09:06.712Z,101263.41
2023-07-19T11:11:39.755Z,101268.47
2023-07-19T11:14:07.653Z,101269.72
2023-07-19T11:16:35.985Z,101265.56
2023-07-19T11:19:03.036Z,101268.13
2023-07-19T11:21:30.147Z,101264.28
2023-07-19T11:23:57.194Z,101262.50
2023-07-19T11:26:24.172Z,101264.88
2023-07-19T11:28:59.508Z,101266.75
2023-07-19T11:31:35.328Z,101264.19
2023-07-19T11:34:11.258Z,101251.13
2023-07-19T11:36:43.202Z,101273.91
2023-07-19T11:39:24.909Z,101271.13
2023-07-19T11:41:52.219Z,101277.91
2023-07-19T11:44:23.102Z,101274.88
2023-07-19T11:46:50.342Z,101274.63
2023-07-19T11:49:17.743Z,101272.69
2023-07-19T11:51:46.422Z,101270.09
2023-07-19T11:54:15.482Z,101271.78
2023-07-19T11:56:42.578Z,101266.44
2023-07-19T11:59:09.633Z,101262.75
2023-07-19T12:01:37.383Z,101280.50
2023-07-19T12:04:05.020Z,101268.47
2023-07-19T12:06:32.603Z,101267.94
2023-07-19T12:09:00.096Z,101269.84
2023-07-19T12:11:27.592Z,101276.25
2023-07-19T12:13:58.356Z,101279.94
2023-07-19T12:16:26.452Z,101272.25
2023-07-19T12:18:53.509Z,101281.78
2023-07-19T12:21:20.846Z,101271.72
2023-07-19T12:23:58.323Z,101278.91
2023-07-19T12:28:57.684Z,101269.00
2023-07-19T12:31:24.884Z,101278.25
2023-07-19T12:33:51.872Z,101275.28
2023-07-19T12:36:19.047Z,101273.72
2023-07-19T12:38:47.018Z,101278.00
2023-07-19T12:41:14.080Z,101272.13
2023-07-19T12:43:42.098Z,101283.31
2023-07-19T12:46:09.091Z,101271.69
2023-07-19T12:48:36.761Z,101268.38
2023-07-19T12:51:05.394Z,101283.78
2023-07-19T12:53:32.439Z,101275.78
2023-07-19T12:55:59.497Z,101281.34
2023-07-19T12:58:26.525Z,101279.25
2023-07-19T13:00:53.491Z,101277.22
2023-07-19T13:03:21.697Z,101283.19
2023-07-19T13:05:49.920Z,101284.88
2023-07-19T13:08:17.028Z,101277.94
2023-07-19T13:10:44.446Z,101280.41
2023-07-19T13:13:11.736Z,101276.59
2023-07-19T13:15:39.029Z,101275.56
2023-07-19T13:18:06.106Z,101285.59
2023-07-19T13:20:33.757Z,101274.38
2023-07-19T13:23:03.075Z,101270.81
2023-07-19T13:25:30.565Z,101283.41
2023-07-19T13:27:57.673Z,101273.88
2023-07-19T13:30:25.328Z,101270.94
2023-07-19T13:32:52.539Z,101278.06
2023-07-19T13:35:54.613Z,101273.31
2023-07-19T13:38:08.196Z,101277.97
2023-07-19T13:40:38.154Z,101275.25
2023-07-19T13:43:05.330Z,101278.50
2023-07-19T13:45:33.100Z,101278.44
2023-07-19T13:48:00.199Z,101271.44
2023-07-19T13:50:27.236Z,101269.28
2023-07-19T13:52:54.488Z,101276.78
2023-07-19T13:55:21.776Z,101266.53
2023-07-19T13:57:48.719Z,101267.41
2023-07-19T14:00:16.374Z,101264.66
2023-07-19T14:02:43.538Z,101274.41
2023-07-19T14:05:11.266Z,101272.69
2023-07-19T14:07:38.357Z,101265.00
2023-07-19T14:10:06.786Z,101274.53
2023-07-19T14:12:36.306Z,101280.16
2023-07-19T14:15:09.032Z,101280.47
2023-07-19T14:17:36.264Z,101277.25
2023-07-19T14:20:08.111Z,101275.38
2023-07-19T14:22:35.268Z,101282.09
2023-07-19T14:25:02.697Z,101284.28
2023-07-19T14:27:29.710Z,101287.22
2023-07-19T14:29:57.928Z,101277.94
2023-07-19T14:32:24.858Z,101280.94
2023-07-19T14:34:52.440Z,101290.72
2023-07-19T14:37:21.059Z,101289.19
2023-07-19T14:39:48.446Z,101285.47
2023-07-19T14:42:15.486Z,101290.72
2023-07-19T14:44:42.508Z,101290.97
2023-07-19T14:47:09.489Z,101288.97
2023-07-19T14:49:37.782Z,101292.84
2023-07-19T14:52:05.203Z,101286.41
2023-07-19T14:54:32.229Z,101291.81
2023-07-19T14:59:31.024Z,101284.38
2023-07-19T15:01:58.221Z,101264.59
2023-07-19T15:04:25.625Z,101270.03
2023-07-19T15:06:53.854Z,101260.59
2023-07-19T15:09:20.876Z,101264.41
2023-07-19T15:11:48.895Z,101263.59
2023-07-19T15:14:16.192Z,101269.06
2023-07-19T15:16:43.385Z,101260.75
2023-07-19T15:19:10.567Z,101262.19
2023-07-19T15:21:41.605Z,101253.22
2023-07-19T15:24:09.669Z,101253.84
2023-07-19T15:26:40.396Z,101253.31
2023-07-19T15:29:07.814Z,101259.09
2023-07-19T15:31:35.266Z,101254.38
2023-07-19T15:34:03.078Z,101253.00
2023-07-19T15:36:30.279Z,101249.59
2023-07-19T15:38:57.298Z,101256.50
2023-07-19T15:41:25.042Z,101250.09
2023-07-19T15:43:52.374Z,101244.81
2023-07-19T15:46:19.387Z,101249.13
2023-07-19T15:48:47.113Z,101244.03
2023-07-19T15:51:14.607Z,101265.50
2023-07-19T15:53:41.839Z,101254.81
2023-07-19T15:56:10.550Z,101260.00
2023-07-19T15:58:38.477Z,101257.84
2023-07-19T16:01:09.829Z,101259.41
2023-07-19T16:03:39.053Z,101262.25
2023-07-19T16:06:08.338Z,101258.69
2023-07-19T16:08:36.451Z,101264.41
2023-07-19T16:11:04.234Z,101260.31
2023-07-19T16:13:31.500Z,101260.91
2023-07-19T16:15:58.628Z,101266.97
2023-07-19T16:18:26.641Z,101266.34
2023-07-19T16:20:53.943Z,101260.66
2023-07-19T16:23:20.867Z,101261.91
2023-07-19T16:25:47.924Z,101272.13
2023-07-19T16:28:15.047Z,101271.94
2023-07-19T16:30:42.316Z,101269.81
2023-07-19T16:33:09.408Z,101269.25
2023-07-19T16:35:36.499Z,101258.25
2023-07-19T16:38:03.681Z,101256.50
2023-07-19T16:40:30.823Z,101254.06
2023-07-19T16:42:58.095Z,101250.56
2023-07-19T16:45:25.457Z,101255.59
2023-07-19T16:47:58.015Z,101262.91
2023-07-19T16:50:28.976Z,101261.78
2023-07-19T16:53:04.099Z,101259.56
2023-07-19T16:55:31.590Z,101261.50
2023-07-19T16:58:03.620Z,101253.53
2023-07-19T17:00:30.908Z,101252.28
2023-07-19T17:03:01.069Z,101253.63
2023-07-19T17:05:28.151Z,101258.25
2023-07-19T17:07:56.248Z,101254.53
2023-07-19T17:10:23.552Z,101265.94
2023-07-19T17:12:50.496Z,101264.31
2023-07-19T17:15:17.660Z,101262.31
2023-07-19T17:17:44.698Z,101257.69
2023-07-19T17:20:12.109Z,101266.53
2023-07-19T17:22:40.744Z,101264.50
2023-07-19T17:25:08.279Z,101262.75
2023-07-19T17:27:35.260Z,101268.03
2023-07-19T17:30:04.812Z,101264.19
2023-07-19T17:32:33.266Z,101262.69
2023-07-19T17:35:00.879Z,101260.16
2023-07-19T17:37:28.496Z,101271.03
2023-07-19T17:39:55.450Z,101270.44
2023-07-19T17:42:22.413Z,101261.38
2023-07-19T17:44:49.419Z,101261.66
2023-07-19T17:47:16.411Z,101265.41
2023-07-19T17:49:43.352Z,101260.19
2023-07-19T17:52:10.338Z,101267.44
2023-07-19T17:54:37.402Z,101270.94
2023-07-19T17:57:04.763Z,101264.38
2023-07-19T17:59:31.659Z,101272.66
2023-07-19T18:01:58.732Z,101269.84
2023-07-19T18:04:26.288Z,101276.81
2023-07-19T18:06:53.195Z,101280.78
2023-07-19T18:09:20.226Z,101270.97
2023-07-19T18:11:47.740Z,101290.16
2023-07-19T18:14:14.750Z,101284.81
2023-07-19T18:16:41.737Z,101296.44
2023-07-19T18:19:08.696Z,101285.75
2023-07-19T18:21:36.208Z,101285.59
2023-07-19T18:24:03.193Z,101293.19
2023-07-19T18:26:30.498Z,101300.09
2023-07-19T18:28:57.426Z,101296.81
2023-07-19T18:31:24.658Z,101290.22
2023-07-19T18:33:52.026Z,101289.63
2023-07-19T18:36:19.581Z,101284.31
2023-07-19T18:38:46.502Z,101286.13
2023-07-19T18:41:13.721Z,101292.41
2023-07-19T18:43:41.027Z,101296.19
2023-07-19T18:46:08.073Z,101293.91
2023-07-19T18:48:35.204Z,101294.19
2023-07-19T18:51:02.445Z,101288.63
2023-07-19T18:53:34.810Z,101292.41
2023-07-19T18:56:01.682Z,101287.22
2023-07-19T18:58:28.722Z,101281.25
2023-07-19T19:00:55.755Z,101282.91
2023-07-19T19:03:22.764Z,101283.94
2023-07-19T19:05:49.898Z,101288.38
2023-07-19T19:08:21.581Z,101285.97
2023-07-19T19:10:51.964Z,101285.94
2023-07-19T19:13:19.026Z,101288.84
2023-07-19T19:15:46.738Z,101287.97
2023-07-19T19:18:13.801Z,101290.72
2023-07-19T19:20:40.972Z,101291.09
2023-07-19T19:23:09.255Z,101292.97
2023-07-19T19:25:36.249Z,101288.56
2023-07-19T19:28:03.816Z,101291.28
2023-07-19T19:30:33.836Z,101299.41
2023-07-19T19:33:01.342Z,101290.59
2023-07-19T19:35:28.885Z,101294.34
2023-07-19T19:37:55.901Z,101297.97
2023-07-19T19:40:22.886Z,101290.00
2023-07-19T19:42:49.857Z,101292.81
2023-07-19T19:45:16.914Z,101298.25
2023-07-19T19:47:44.539Z,101299.19
2023-07-19T19:50:12.543Z,101296.66
2023-07-19T19:52:39.577Z,101307.47
2023-07-19T19:55:09.807Z,101307.56
2023-07-19T19:57:36.876Z,101301.53
2023-07-19T20:00:05.747Z,101294.66
2023-07-19T20:02:37.757Z,101313.53
2023-07-19T20:05:07.732Z,101311.72
2023-07-19T20:07:34.809Z,101303.97
2023-07-19T20:10:17.307Z,101308.47
2023-07-19T20:12:45.923Z,101304.97
2023-07-19T20:15:13.881Z,101308.75
2023-07-19T20:17:41.165Z,101314.19
2023-07-19T20:20:09.715Z,101316.09
2023-07-19T20:22:50.448Z,101317.84
2023-07-19T20:25:26.416Z,101309.13
2023-07-19T20:28:04.917Z,101314.56
2023-07-19T20:33:10.626Z,101301.22
2023-07-19T20:43:09.991Z,101307.75
2023-07-19T20:45:37.083Z,101300.78
2023-07-19T20:48:04.874Z,101308.81
2023-07-19T20:50:31.963Z,101302.59
2023-07-19T20:53:01.458Z,101303.63
2023-07-19T20:55:28.459Z,101293.84
2023-07-19T20:57:55.442Z,101306.41
2023-07-19T21:00:22.559Z,101306.38
2023-07-19T21:02:49.772Z,101308.31
2023-07-19T21:05:18.393Z,101313.69
2023-07-19T21:07:45.437Z,101311.06
2023-07-19T21:10:12.461Z,101306.50
2023-07-19T21:12:39.405Z,101316.38
2023-07-19T21:15:07.263Z,101320.81
2023-07-19T21:17:35.621Z,101319.13
2023-07-19T21:20:02.681Z,101325.38
2023-07-19T21:22:29.697Z,101324.56
2023-07-19T21:27:27.069Z,101314.00
2023-07-19T21:29:54.625Z,101318.41
2023-07-19T21:32:23.065Z,101315.81
2023-07-19T21:34:50.380Z,101311.41
2023-07-19T21:37:20.909Z,101319.47
2023-07-19T21:39:48.674Z,101319.50
2023-07-19T21:42:15.769Z,101313.28
2023-07-19T21:44:43.467Z,101323.13
2023-07-19T21:47:10.474Z,101327.63
2023-07-19T21:49:37.504Z,101322.31
2023-07-19T21:52:06.141Z,101325.03
2023-07-19T21:54:33.149Z,101319.75
2023-07-19T21:57:00.135Z,101324.19
2023-07-19T21:59:27.282Z,101319.84
2023-07-19T22:01:54.327Z,101327.84
2023-07-19T22:04:21.409Z,101321.69
2023-07-19T22:06:48.439Z,101330.56
2023-07-19T22:09:15.564Z,101331.50
2023-07-19T22:11:42.892Z,101325.25
2023-07-19T22:14:11.529Z,101327.94
2023-07-19T22:16:44.313Z,101334.19
2023-07-19T22:19:15.459Z,101328.88
2023-07-19T22:21:43.303Z,101328.94
2023-07-19T22:24:10.207Z,101323.66
2023-07-19T22:26:37.152Z,101325.41
2023-07-19T22:29:05.997Z,101334.28
2023-07-19T22:31:34.593Z,101321.84
2023-07-19T22:34:02.186Z,101332.53
2023-07-19T22:36:29.354Z,101325.47
2023-07-19T22:38:56.322Z,101322.81
2023-07-19T22:41:23.341Z,101326.41
2023-07-19T22:43:50.553Z,101315.81
2023-07-19T22:46:19.736Z,101325.63
2023-07-19T22:48:50.948Z,101326.56
2023-07-19T22:51:18.256Z,101326.56
2023-07-19T22:53:46.950Z,101326.59
2023-07-19T22:56:15.230Z,101327.50
2023-07-19T22:58:42.331Z,101335.47
2023-07-19T23:01:09.617Z,101332.84
2023-07-19T23:03:36.846Z,101343.53
2023-07-19T23:06:04.460Z,101338.25
2023-07-19T23:08:31.574Z,101337.41
2023-07-19T23:10:58.613Z,101337.41
2023-07-19T23:13:25.769Z,101330.34
2023-07-19T23:15:53.789Z,101338.38
2023-07-19T23:18:23.971Z,101333.94
2023-07-19T23:20:51.433Z,101342.84
2023-07-19T23:23:19.763Z,101337.56
2023-07-19T23:25:46.741Z,101333.13
2023-07-19T23:28:14.470Z,101334.06
2023-07-19T23:30:41.504Z,101334.97
2023-07-19T23:33:08.784Z,101342.03
2023-07-19T23:35:36.283Z,101336.75
2023-07-19T23:38:04.271Z,101345.59
2023-07-19T23:40:31.276Z,101340.34
2023-07-19T23:42:58.316Z,101343.03
2023-07-19T23:45:25.289Z,101340.41
2023-07-19T23:47:52.684Z,101347.50
2023-07-19T23:50:19.862Z,101344.84
2023-07-19T23:52:46.901Z,101337.78
2023-07-19T23:55:14.029Z,101345.72
2023-07-19T23:57:41.008Z,101348.38
